CCA4580 ZGGG-ZUCK
Flight info
| Callsign | CCA4580 |
|---|---|
| Flight time | 1h 29m |
| Altitude | 36100 |
| Route | AGVIL1 AGVIL W24 OSNOV G586 QP B330 ELKAL W179 SUMUN W3 ASIPO W678 SEGDA |
| Aircraft | A346/H-SDE2E3FGHIJ3J4J5M1RWXY/LB1D1 |
Departure
| Time | 2026-04-30 20:27 |
|---|---|
| Airport | Guangzhou Baiyun International Airport (ZGGG) |
Arrival
| Time | 2026-04-30 21:56 |
|---|---|
| Airport | Chongqing Jiangbei International Airport (ZUCK) |
| Time | Latitude | Longitude | Altitude | Speed | Heading |
|---|---|---|---|---|---|
| 2026-04-30 19:59 | 23.37018 | 113.31793 | 60 ft | 0 kts | 286° |
| 2026-04-30 20:17 | 23.37017 | 113.31799 | 60 ft | 2 kts | 286° |
| 2026-04-30 20:17 | 23.37013 | 113.31814 | 60 ft | 2 kts | 286° |
| 2026-04-30 20:17 | 23.37009 | 113.31830 | 60 ft | 2 kts | 286° |
| 2026-04-30 20:17 | 23.37006 | 113.31840 | 60 ft | 2 kts | 285° |
| 2026-04-30 20:18 | 23.37003 | 113.31856 | 60 ft | 2 kts | 268° |
| 2026-04-30 20:18 | 23.37006 | 113.31873 | 60 ft | 2 kts | 252° |
| 2026-04-30 20:18 | 23.37012 | 113.31888 | 60 ft | 2 kts | 237° |
| 2026-04-30 20:18 | 23.37021 | 113.31901 | 60 ft | 2 kts | 222° |
| 2026-04-30 20:19 | 23.37034 | 113.31911 | 60 ft | 2 kts | 207° |
| 2026-04-30 20:19 | 23.37041 | 113.31914 | 60 ft | 1 kts | 200° |
| 2026-04-30 20:19 | 23.37041 | 113.31915 | 60 ft | 0 kts | 200° |
| 2026-04-30 20:21 | 23.37033 | 113.31911 | 60 ft | 3 kts | 200° |
| 2026-04-30 20:22 | 23.36999 | 113.31899 | 60 ft | 6 kts | 193° |
| 2026-04-30 20:22 | 23.36939 | 113.31892 | 60 ft | 10 kts | 177° |
| 2026-04-30 20:22 | 23.36863 | 113.31915 | 60 ft | 12 kts | 159° |
| 2026-04-30 20:22 | 23.36784 | 113.31968 | 60 ft | 14 kts | 123° |
| 2026-04-30 20:23 | 23.36747 | 113.32057 | 60 ft | 12 kts | 127° |
| 2026-04-30 20:23 | 23.36686 | 113.32070 | 60 ft | 10 kts | 191° |
| 2026-04-30 20:23 | 23.36604 | 113.32050 | 60 ft | 13 kts | 194° |
| 2026-04-30 20:23 | 23.36506 | 113.32024 | 60 ft | 15 kts | 194° |
| 2026-04-30 20:24 | 23.36395 | 113.31994 | 60 ft | 17 kts | 193° |
| 2026-04-30 20:24 | 23.36272 | 113.31960 | 60 ft | 18 kts | 193° |
| 2026-04-30 20:24 | 23.36138 | 113.31924 | 60 ft | 20 kts | 193° |
| 2026-04-30 20:24 | 23.35996 | 113.31886 | 60 ft | 21 kts | 194° |
| 2026-04-30 20:25 | 23.35755 | 113.31825 | 60 ft | 8 kts | 173° |
| 2026-04-30 20:25 | 23.35708 | 113.31881 | 60 ft | 12 kts | 105° |
| 2026-04-30 20:26 | 23.35735 | 113.31988 | 60 ft | 3 kts | 17° |
| 2026-04-30 20:26 | 23.35737 | 113.31988 | 60 ft | 0 kts | 17° |
| 2026-04-30 20:26 | 23.35743 | 113.31991 | 60 ft | 9 kts | 17° |
| 2026-04-30 20:27 | 23.37102 | 113.32356 | 61 ft | 179 kts | 15° |
| 2026-04-30 20:27 | 23.39770 | 113.33089 | 1576 ft | 205 kts | 15° |
| 2026-04-30 20:28 | 23.42566 | 113.33798 | 3584 ft | 214 kts | 15° |
| 2026-04-30 20:28 | 23.45686 | 113.34611 | 5282 ft | 248 kts | 14° |
| 2026-04-30 20:29 | 23.48992 | 113.35464 | 7820 ft | 248 kts | 14° |
| 2026-04-30 20:30 | 23.54072 | 113.36793 | 11015 ft | 260 kts | 13° |
| 2026-04-30 20:30 | 23.59350 | 113.36530 | 13705 ft | 271 kts | 320° |
| 2026-04-30 20:31 | 23.62677 | 113.31293 | 15972 ft | 283 kts | 304° |
| 2026-04-30 20:32 | 23.65881 | 113.25752 | 17865 ft | 294 kts | 303° |
| 2026-04-30 20:32 | 23.67897 | 113.21736 | 18903 ft | 310 kts | 296° |
| 2026-04-30 20:33 | 23.68795 | 113.19544 | 19177 ft | 325 kts | 295° |
| 2026-04-30 20:33 | 23.70714 | 113.14816 | 19751 ft | 357 kts | 295° |
| 2026-04-30 20:33 | 23.71747 | 113.12291 | 20030 ft | 373 kts | 295° |
| 2026-04-30 20:34 | 23.73958 | 113.06923 | 20570 ft | 403 kts | 295° |
| 2026-04-30 20:34 | 23.76411 | 113.01203 | 21124 ft | 428 kts | 303° |
| 2026-04-30 20:35 | 23.78357 | 112.98714 | 21646 ft | 431 kts | 321° |
| 2026-04-30 20:35 | 23.80898 | 112.96973 | 22288 ft | 432 kts | 337° |
| 2026-04-30 20:35 | 23.86648 | 112.95001 | 23491 ft | 438 kts | 344° |
| 2026-04-30 20:36 | 23.89573 | 112.94065 | 24025 ft | 442 kts | 344° |
| 2026-04-30 20:36 | 23.92530 | 112.93105 | 24572 ft | 446 kts | 344° |
| 2026-04-30 20:36 | 23.98486 | 112.91136 | 25638 ft | 453 kts | 343° |
| 2026-04-30 20:37 | 24.01513 | 112.90128 | 26154 ft | 456 kts | 343° |
| 2026-04-30 20:37 | 24.04541 | 112.89118 | 26655 ft | 460 kts | 343° |
| 2026-04-30 20:37 | 24.07634 | 112.88086 | 27151 ft | 463 kts | 343° |
| 2026-04-30 20:37 | 24.10698 | 112.87064 | 27638 ft | 466 kts | 343° |
| 2026-04-30 20:38 | 24.13836 | 112.86017 | 28115 ft | 469 kts | 343° |
| 2026-04-30 20:38 | 24.16948 | 112.84981 | 28587 ft | 472 kts | 343° |
| 2026-04-30 20:38 | 24.20079 | 112.83942 | 29215 ft | 470 kts | 343° |
| 2026-04-30 20:39 | 24.26310 | 112.81872 | 30578 ft | 465 kts | 343° |
| 2026-04-30 20:39 | 24.29384 | 112.80848 | 31199 ft | 463 kts | 343° |
| 2026-04-30 20:39 | 24.32451 | 112.79826 | 31796 ft | 462 kts | 343° |
| 2026-04-30 20:40 | 24.38553 | 112.77739 | 32931 ft | 459 kts | 340° |
| 2026-04-30 20:40 | 24.41389 | 112.76233 | 33444 ft | 459 kts | 330° |
| 2026-04-30 20:40 | 24.43989 | 112.74182 | 33952 ft | 460 kts | 320° |
| 2026-04-30 20:41 | 24.48044 | 112.68791 | 34865 ft | 463 kts | 301° |
| 2026-04-30 20:41 | 24.49253 | 112.66003 | 35176 ft | 466 kts | 292° |
| 2026-04-30 20:41 | 24.50155 | 112.62583 | 35495 ft | 470 kts | 283° |
| 2026-04-30 20:41 | 24.50610 | 112.58987 | 35820 ft | 473 kts | 278° |
| 2026-04-30 20:42 | 24.50951 | 112.55406 | 36108 ft | 474 kts | 277° |
| 2026-04-30 20:42 | 24.51279 | 112.51767 | 36157 ft | 476 kts | 277° |
| 2026-04-30 20:43 | 24.52278 | 112.40942 | 36160 ft | 476 kts | 278° |
| 2026-04-30 20:43 | 24.52962 | 112.33738 | 36160 ft | 476 kts | 277° |
| 2026-04-30 20:44 | 24.53997 | 112.22887 | 36160 ft | 476 kts | 277° |
| 2026-04-30 20:45 | 24.55368 | 112.08412 | 36160 ft | 476 kts | 277° |
| 2026-04-30 20:45 | 24.56049 | 112.01170 | 36160 ft | 476 kts | 277° |
| 2026-04-30 20:46 | 24.57395 | 111.86733 | 36160 ft | 476 kts | 277° |
| 2026-04-30 20:47 | 24.58398 | 111.75866 | 36160 ft | 476 kts | 277° |
| 2026-04-30 20:48 | 24.59387 | 111.65068 | 36160 ft | 476 kts | 277° |
| 2026-04-30 20:48 | 24.60048 | 111.57808 | 36160 ft | 476 kts | 277° |
| 2026-04-30 20:49 | 24.60700 | 111.50595 | 36160 ft | 476 kts | 277° |
| 2026-04-30 20:50 | 24.61676 | 111.39726 | 36159 ft | 476 kts | 277° |
| 2026-04-30 20:50 | 24.62319 | 111.32506 | 36159 ft | 476 kts | 277° |
| 2026-04-30 20:51 | 24.62959 | 111.25266 | 36160 ft | 476 kts | 277° |
| 2026-04-30 20:51 | 24.63898 | 111.14407 | 36160 ft | 476 kts | 277° |
| 2026-04-30 20:52 | 24.64516 | 111.07166 | 36160 ft | 476 kts | 277° |
| 2026-04-30 20:53 | 24.65431 | 110.96365 | 36160 ft | 473 kts | 277° |
| 2026-04-30 20:53 | 24.66054 | 110.89163 | 36159 ft | 470 kts | 279° |
| 2026-04-30 20:54 | 24.67511 | 110.82235 | 36160 ft | 465 kts | 291° |
| 2026-04-30 20:54 | 24.68727 | 110.78948 | 36160 ft | 464 kts | 297° |
| 2026-04-30 20:55 | 24.74095 | 110.70242 | 36159 ft | 461 kts | 314° |
| 2026-04-30 20:55 | 24.78686 | 110.65306 | 36160 ft | 461 kts | 317° |
| 2026-04-30 20:56 | 24.85657 | 110.58015 | 36159 ft | 461 kts | 317° |
| 2026-04-30 20:57 | 24.92588 | 110.50710 | 36159 ft | 461 kts | 317° |
| 2026-04-30 20:57 | 24.97210 | 110.45824 | 36159 ft | 461 kts | 317° |
| 2026-04-30 20:58 | 25.04118 | 110.38532 | 36160 ft | 457 kts | 317° |
| 2026-04-30 20:58 | 25.08709 | 110.33691 | 36161 ft | 455 kts | 316° |
| 2026-04-30 20:59 | 25.15530 | 110.26470 | 36160 ft | 454 kts | 315° |
| 2026-04-30 21:00 | 25.24667 | 110.16834 | 36159 ft | 454 kts | 316° |
| 2026-04-30 21:01 | 25.31547 | 110.09643 | 36159 ft | 454 kts | 316° |
| 2026-04-30 21:02 | 25.38413 | 110.02441 | 36159 ft | 454 kts | 315° |
| 2026-04-30 21:02 | 25.42982 | 109.97639 | 36159 ft | 454 kts | 315° |
| 2026-04-30 21:03 | 25.47568 | 109.92815 | 36159 ft | 454 kts | 315° |
| 2026-04-30 21:03 | 25.52129 | 109.88010 | 36159 ft | 454 kts | 315° |
| 2026-04-30 21:04 | 25.56697 | 109.83192 | 36159 ft | 454 kts | 315° |
| 2026-04-30 21:04 | 25.63556 | 109.75944 | 36159 ft | 454 kts | 315° |
| 2026-04-30 21:05 | 25.68126 | 109.71110 | 36159 ft | 454 kts | 315° |
| 2026-04-30 21:05 | 25.72532 | 109.66089 | 36159 ft | 454 kts | 310° |
| 2026-04-30 21:06 | 25.76229 | 109.60459 | 36159 ft | 453 kts | 302° |
| 2026-04-30 21:06 | 25.77841 | 109.57304 | 36159 ft | 453 kts | 297° |
| 2026-04-30 21:07 | 25.80301 | 109.50870 | 36159 ft | 454 kts | 289° |
| 2026-04-30 21:07 | 25.82114 | 109.44201 | 36159 ft | 454 kts | 287° |
| 2026-04-30 21:08 | 25.83874 | 109.37464 | 36159 ft | 454 kts | 287° |
| 2026-04-30 21:08 | 25.85641 | 109.30714 | 36160 ft | 454 kts | 287° |
| 2026-04-30 21:09 | 25.87400 | 109.23998 | 36160 ft | 454 kts | 287° |
| 2026-04-30 21:09 | 25.89165 | 109.17246 | 36160 ft | 454 kts | 287° |
| 2026-04-30 21:10 | 25.90911 | 109.10552 | 36160 ft | 453 kts | 287° |
| 2026-04-30 21:10 | 25.92669 | 109.03807 | 36160 ft | 452 kts | 287° |
| 2026-04-30 21:11 | 25.94444 | 108.97138 | 36160 ft | 450 kts | 287° |
| 2026-04-30 21:11 | 25.96219 | 108.90475 | 36159 ft | 450 kts | 287° |
| 2026-04-30 21:12 | 25.97985 | 108.83817 | 36159 ft | 450 kts | 287° |
| 2026-04-30 21:12 | 25.99750 | 108.77141 | 36159 ft | 450 kts | 287° |
| 2026-04-30 21:13 | 26.01522 | 108.70441 | 36159 ft | 450 kts | 287° |
| 2026-04-30 21:13 | 26.03284 | 108.63827 | 36159 ft | 450 kts | 287° |
| 2026-04-30 21:14 | 26.05063 | 108.57131 | 36159 ft | 450 kts | 287° |
| 2026-04-30 21:14 | 26.06820 | 108.50494 | 36159 ft | 450 kts | 287° |
| 2026-04-30 21:15 | 26.08605 | 108.43812 | 36158 ft | 450 kts | 288° |
| 2026-04-30 21:15 | 26.10790 | 108.37302 | 36160 ft | 449 kts | 294° |
| 2026-04-30 21:16 | 26.13456 | 108.30973 | 36161 ft | 449 kts | 295° |
| 2026-04-30 21:16 | 26.16177 | 108.24706 | 36159 ft | 449 kts | 295° |
| 2026-04-30 21:17 | 26.18891 | 108.18439 | 36150 ft | 449 kts | 295° |
| 2026-04-30 21:17 | 26.21597 | 108.12174 | 36141 ft | 450 kts | 295° |
| 2026-04-30 21:18 | 26.24310 | 108.05878 | 36136 ft | 450 kts | 295° |
| 2026-04-30 21:18 | 26.26996 | 107.99634 | 36134 ft | 450 kts | 295° |
| 2026-04-30 21:19 | 26.29709 | 107.93317 | 36133 ft | 450 kts | 295° |
| 2026-04-30 21:19 | 26.32399 | 107.87045 | 36133 ft | 450 kts | 295° |
| 2026-04-30 21:20 | 26.35090 | 107.80763 | 36133 ft | 450 kts | 295° |
| 2026-04-30 21:20 | 26.37759 | 107.74520 | 36133 ft | 450 kts | 295° |
| 2026-04-30 21:21 | 26.40657 | 107.68334 | 36131 ft | 450 kts | 304° |
| 2026-04-30 21:21 | 26.44931 | 107.63261 | 36132 ft | 453 kts | 320° |
| 2026-04-30 21:22 | 26.47541 | 107.61284 | 36131 ft | 454 kts | 328° |
| 2026-04-30 21:23 | 26.59378 | 107.56111 | 36132 ft | 457 kts | 338° |
| 2026-04-30 21:23 | 26.68325 | 107.52544 | 36131 ft | 457 kts | 338° |
| 2026-04-30 21:24 | 26.74310 | 107.50142 | 36132 ft | 457 kts | 338° |
| 2026-04-30 21:24 | 26.80297 | 107.47732 | 36133 ft | 457 kts | 338° |
| 2026-04-30 21:25 | 26.89277 | 107.44112 | 36133 ft | 457 kts | 338° |
| 2026-04-30 21:26 | 26.98239 | 107.40495 | 36132 ft | 459 kts | 338° |
| 2026-04-30 21:27 | 27.07273 | 107.36839 | 36132 ft | 462 kts | 337° |
| 2026-04-30 21:27 | 27.13311 | 107.34390 | 36135 ft | 462 kts | 336° |
| 2026-04-30 21:28 | 27.22368 | 107.30712 | 36051 ft | 462 kts | 336° |
| 2026-04-30 21:28 | 27.28369 | 107.28273 | 35553 ft | 459 kts | 336° |
| 2026-04-30 21:29 | 27.31354 | 107.27059 | 35305 ft | 456 kts | 336° |
| 2026-04-30 21:29 | 27.40261 | 107.23432 | 34554 ft | 454 kts | 336° |
| 2026-04-30 21:30 | 27.46193 | 107.21011 | 34054 ft | 455 kts | 336° |
| 2026-04-30 21:31 | 27.55099 | 107.17373 | 33305 ft | 458 kts | 336° |
| 2026-04-30 21:31 | 27.61084 | 107.14925 | 32511 ft | 460 kts | 337° |
| 2026-04-30 21:32 | 27.67137 | 107.12447 | 31219 ft | 463 kts | 337° |
| 2026-04-30 21:32 | 27.70152 | 107.11210 | 30490 ft | 466 kts | 337° |
| 2026-04-30 21:32 | 27.73213 | 107.09953 | 29742 ft | 469 kts | 337° |
| 2026-04-30 21:32 | 27.76246 | 107.08708 | 29000 ft | 472 kts | 337° |
| 2026-04-30 21:33 | 27.79344 | 107.07436 | 28229 ft | 474 kts | 337° |
| 2026-04-30 21:33 | 27.85488 | 107.04913 | 27189 ft | 466 kts | 337° |
| 2026-04-30 21:33 | 27.88524 | 107.03665 | 26641 ft | 464 kts | 337° |
| 2026-04-30 21:34 | 27.91544 | 107.02422 | 26123 ft | 460 kts | 337° |
| 2026-04-30 21:34 | 27.97495 | 106.99972 | 25056 ft | 455 kts | 337° |
| 2026-04-30 21:34 | 28.00472 | 106.98744 | 24574 ft | 451 kts | 337° |
| 2026-04-30 21:35 | 28.03379 | 106.97544 | 24120 ft | 446 kts | 338° |
| 2026-04-30 21:35 | 28.06308 | 106.96335 | 23656 ft | 442 kts | 338° |
| 2026-04-30 21:35 | 28.09167 | 106.95155 | 23200 ft | 439 kts | 338° |
| 2026-04-30 21:35 | 28.12018 | 106.93977 | 22733 ft | 435 kts | 338° |
| 2026-04-30 21:36 | 28.14851 | 106.92805 | 22267 ft | 432 kts | 338° |
| 2026-04-30 21:36 | 28.17649 | 106.91647 | 21801 ft | 429 kts | 338° |
| 2026-04-30 21:37 | 28.25956 | 106.88205 | 20435 ft | 420 kts | 338° |
| 2026-04-30 21:37 | 28.28696 | 106.87068 | 19992 ft | 417 kts | 338° |
| 2026-04-30 21:37 | 28.31409 | 106.85942 | 19555 ft | 414 kts | 338° |
| 2026-04-30 21:37 | 28.34088 | 106.84830 | 19124 ft | 411 kts | 338° |
| 2026-04-30 21:38 | 28.36750 | 106.83723 | 18693 ft | 408 kts | 338° |
| 2026-04-30 21:38 | 28.39403 | 106.82620 | 18265 ft | 405 kts | 338° |
| 2026-04-30 21:38 | 28.42034 | 106.81526 | 17840 ft | 402 kts | 338° |
| 2026-04-30 21:38 | 28.44650 | 106.80438 | 17418 ft | 399 kts | 338° |
| 2026-04-30 21:39 | 28.47256 | 106.79354 | 16995 ft | 397 kts | 338° |
| 2026-04-30 21:39 | 28.49832 | 106.78280 | 16575 ft | 394 kts | 338° |
| 2026-04-30 21:39 | 28.52385 | 106.77214 | 16157 ft | 392 kts | 338° |
| 2026-04-30 21:39 | 28.54928 | 106.76154 | 15738 ft | 389 kts | 338° |
| 2026-04-30 21:40 | 28.57471 | 106.75092 | 15318 ft | 387 kts | 338° |
| 2026-04-30 21:40 | 28.60026 | 106.74023 | 14894 ft | 385 kts | 338° |
| 2026-04-30 21:40 | 28.62513 | 106.72984 | 14482 ft | 383 kts | 338° |
| 2026-04-30 21:40 | 28.65022 | 106.71935 | 14063 ft | 381 kts | 338° |
| 2026-04-30 21:41 | 28.67483 | 106.70907 | 13652 ft | 378 kts | 338° |
| 2026-04-30 21:41 | 28.69961 | 106.69975 | 13236 ft | 377 kts | 344° |
| 2026-04-30 21:41 | 28.72537 | 106.69395 | 12819 ft | 376 kts | 351° |
| 2026-04-30 21:41 | 28.75131 | 106.69182 | 12398 ft | 374 kts | 358° |
| 2026-04-30 21:42 | 28.77753 | 106.69164 | 11995 ft | 372 kts | 359° |
| 2026-04-30 21:42 | 28.80312 | 106.69182 | 11595 ft | 369 kts | 359° |
| 2026-04-30 21:42 | 28.82853 | 106.69192 | 11191 ft | 367 kts | 359° |
| 2026-04-30 21:42 | 28.84572 | 106.69196 | 10916 ft | 365 kts | 359° |
| 2026-04-30 21:43 | 28.87102 | 106.69199 | 10719 ft | 354 kts | 359° |
| 2026-04-30 21:43 | 28.89509 | 106.69201 | 10614 ft | 341 kts | 359° |
| 2026-04-30 21:43 | 28.91830 | 106.69199 | 10501 ft | 329 kts | 359° |
| 2026-04-30 21:43 | 28.94077 | 106.69196 | 10393 ft | 318 kts | 359° |
| 2026-04-30 21:44 | 28.96236 | 106.69112 | 10292 ft | 304 kts | 352° |
| 2026-04-30 21:44 | 28.98267 | 106.68715 | 10243 ft | 291 kts | 348° |
| 2026-04-30 21:44 | 29.00235 | 106.68243 | 10196 ft | 284 kts | 347° |
| 2026-04-30 21:44 | 29.02160 | 106.67780 | 10148 ft | 281 kts | 348° |
| 2026-04-30 21:45 | 29.04079 | 106.67336 | 10108 ft | 278 kts | 348° |
| 2026-04-30 21:45 | 29.05988 | 106.66908 | 10072 ft | 277 kts | 348° |
| 2026-04-30 21:45 | 29.07859 | 106.66496 | 10039 ft | 276 kts | 349° |
| 2026-04-30 21:45 | 29.09743 | 106.66087 | 10004 ft | 276 kts | 349° |
| 2026-04-30 21:46 | 29.11643 | 106.65678 | 9742 ft | 277 kts | 349° |
| 2026-04-30 21:46 | 29.13561 | 106.65266 | 9398 ft | 278 kts | 349° |
| 2026-04-30 21:46 | 29.15460 | 106.64859 | 9087 ft | 278 kts | 349° |
| 2026-04-30 21:46 | 29.17361 | 106.64452 | 8789 ft | 277 kts | 349° |
| 2026-04-30 21:47 | 29.19256 | 106.64047 | 8496 ft | 276 kts | 349° |
| 2026-04-30 21:47 | 29.21134 | 106.63644 | 8208 ft | 275 kts | 349° |
| 2026-04-30 21:47 | 29.23012 | 106.63242 | 7920 ft | 274 kts | 349° |
| 2026-04-30 21:47 | 29.24875 | 106.62843 | 7635 ft | 273 kts | 350° |
| 2026-04-30 21:48 | 29.26733 | 106.62445 | 7351 ft | 272 kts | 350° |
| 2026-04-30 21:48 | 29.28580 | 106.62049 | 7069 ft | 271 kts | 350° |
| 2026-04-30 21:48 | 29.30444 | 106.61649 | 6783 ft | 270 kts | 350° |
| 2026-04-30 21:48 | 29.32287 | 106.61253 | 6501 ft | 269 kts | 350° |
| 2026-04-30 21:49 | 29.34117 | 106.60860 | 6221 ft | 268 kts | 350° |
| 2026-04-30 21:49 | 29.35940 | 106.60469 | 5942 ft | 267 kts | 350° |
| 2026-04-30 21:49 | 29.37775 | 106.60075 | 5660 ft | 266 kts | 350° |
| 2026-04-30 21:49 | 29.39587 | 106.59685 | 5381 ft | 265 kts | 350° |
| 2026-04-30 21:50 | 29.41394 | 106.59296 | 5102 ft | 264 kts | 350° |
| 2026-04-30 21:50 | 29.43178 | 106.58913 | 4934 ft | 257 kts | 350° |
| 2026-04-30 21:50 | 29.44912 | 106.58544 | 4921 ft | 243 kts | 354° |
| 2026-04-30 21:50 | 29.46528 | 106.58376 | 4934 ft | 223 kts | 0° |
| 2026-04-30 21:51 | 29.47994 | 106.58512 | 4902 ft | 202 kts | 11° |
| 2026-04-30 21:51 | 29.49340 | 106.58865 | 4913 ft | 198 kts | 15° |
| 2026-04-30 21:51 | 29.50684 | 106.59299 | 4924 ft | 198 kts | 18° |
| 2026-04-30 21:51 | 29.52003 | 106.59758 | 4929 ft | 197 kts | 18° |
| 2026-04-30 21:52 | 29.53316 | 106.60222 | 4930 ft | 197 kts | 18° |
| 2026-04-30 21:52 | 29.54633 | 106.60687 | 4880 ft | 198 kts | 18° |
| 2026-04-30 21:52 | 29.55947 | 106.61150 | 4652 ft | 197 kts | 18° |
| 2026-04-30 21:52 | 29.57254 | 106.61608 | 4389 ft | 195 kts | 18° |
| 2026-04-30 21:53 | 29.58552 | 106.62061 | 4129 ft | 194 kts | 18° |
| 2026-04-30 21:53 | 29.59845 | 106.62512 | 3870 ft | 193 kts | 18° |
| 2026-04-30 21:53 | 29.61130 | 106.62961 | 3613 ft | 192 kts | 18° |
| 2026-04-30 21:53 | 29.62406 | 106.63407 | 3357 ft | 191 kts | 18° |
| 2026-04-30 21:54 | 29.63646 | 106.63839 | 3097 ft | 182 kts | 18° |
| 2026-04-30 21:54 | 29.64820 | 106.64247 | 2851 ft | 169 kts | 18° |
| 2026-04-30 21:54 | 29.65910 | 106.64625 | 2633 ft | 160 kts | 18° |
| 2026-04-30 21:54 | 29.66970 | 106.64999 | 2439 ft | 159 kts | 19° |
| 2026-04-30 21:55 | 29.68026 | 106.65372 | 2237 ft | 158 kts | 18° |
| 2026-04-30 21:55 | 29.69092 | 106.65747 | 2024 ft | 158 kts | 19° |
| 2026-04-30 21:55 | 29.70129 | 106.66127 | 1812 ft | 157 kts | 22° |
| 2026-04-30 21:55 | 29.71171 | 106.66508 | 1604 ft | 157 kts | 18° |
| 2026-04-30 21:56 | 29.72225 | 106.66837 | 1393 ft | 154 kts | 20° |
| 2026-04-30 21:56 | 29.73120 | 106.67151 | 1379 ft | 109 kts | 17° |
| 2026-04-30 21:56 | 29.73683 | 106.67271 | 1379 ft | 56 kts | 348° |
| 2026-04-30 21:56 | 29.73904 | 106.67224 | 1379 ft | 13 kts | 351° |
| 2026-04-30 21:57 | 29.73966 | 106.67186 | 1379 ft | 9 kts | 295° |
| 2026-04-30 21:57 | 29.73998 | 106.67106 | 1379 ft | 12 kts | 292° |
| 2026-04-30 21:57 | 29.74026 | 106.67007 | 1379 ft | 14 kts | 287° |
| 2026-04-30 21:57 | 29.74056 | 106.66893 | 1379 ft | 15 kts | 287° |
| 2026-04-30 21:58 | 29.74082 | 106.66794 | 1379 ft | 8 kts | 281° |
| 2026-04-30 21:58 | 29.74058 | 106.66743 | 1379 ft | 9 kts | 209° |
| 2026-04-30 21:58 | 29.73988 | 106.66717 | 1379 ft | 11 kts | 197° |
| 2026-04-30 21:58 | 29.73902 | 106.66688 | 1379 ft | 13 kts | 195° |
| 2026-04-30 21:59 | 29.73801 | 106.66657 | 1379 ft | 15 kts | 197° |
| 2026-04-30 21:59 | 29.73692 | 106.66618 | 1379 ft | 17 kts | 197° |
| 2026-04-30 21:59 | 29.73574 | 106.66576 | 1379 ft | 18 kts | 196° |
| 2026-04-30 22:00 | 29.73315 | 106.66487 | 1379 ft | 19 kts | 196° |
| 2026-04-30 22:00 | 29.73145 | 106.66418 | 1379 ft | 8 kts | 224° |
| 2026-04-30 22:00 | 29.73129 | 106.66344 | 1379 ft | 11 kts | 265° |
| 2026-04-30 22:01 | 29.73111 | 106.66249 | 1379 ft | 12 kts | 255° |
| 2026-04-30 22:01 | 29.73101 | 106.66199 | 1379 ft | 3 kts | 265° |
| 2026-04-30 22:01 | 29.73118 | 106.66161 | 1379 ft | 8 kts | 324° |
| 2026-04-30 22:01 | 29.73167 | 106.66135 | 1379 ft | 8 kts | 339° |
| 2026-04-30 22:02 | 29.73214 | 106.66116 | 1379 ft | 5 kts | 343° |
| 2026-04-30 22:02 | 29.73237 | 106.66109 | 1379 ft | 0 kts | 343° |
| 2026-04-30 22:02 | 29.73239 | 106.66108 | 1379 ft | 0 kts | 343° |